createdAt,value
2024-01-19T00:00:48.601Z,93658.00
2024-01-19T00:01:48.646Z,93661.00
2024-01-19T00:02:48.822Z,93663.00
2024-01-19T00:03:48.789Z,93669.00
2024-01-19T00:04:48.860Z,93673.00
2024-01-19T00:05:49.168Z,93677.00
2024-01-19T00:06:49.007Z,93677.00
2024-01-19T00:07:49.088Z,93677.00
2024-01-19T00:08:49.170Z,93679.00
2024-01-19T00:09:49.184Z,93680.00
2024-01-19T00:10:49.272Z,93681.00
2024-01-19T00:11:49.375Z,93683.00
2024-01-19T00:12:49.412Z,93690.00
2024-01-19T00:13:49.482Z,93693.00
2024-01-19T00:14:49.614Z,93696.00
2024-01-19T00:15:49.608Z,93700.00
2024-01-19T00:16:49.686Z,93702.00
2024-01-19T00:17:49.778Z,93703.00
2024-01-19T00:18:49.781Z,93705.00
2024-01-19T00:19:49.850Z,93706.00
2024-01-19T00:20:49.961Z,93710.00
2024-01-19T00:21:50.013Z,93712.00
2024-01-19T00:22:50.104Z,93711.00
2024-01-19T00:23:50.295Z,93710.00
2024-01-19T00:24:50.210Z,93712.00
2024-01-19T00:25:50.322Z,93713.00
2024-01-19T00:26:50.524Z,93713.00
2024-01-19T00:27:50.411Z,93717.00
2024-01-19T00:28:50.491Z,93718.00
2024-01-19T00:29:50.635Z,93719.00
2024-01-19T00:30:50.622Z,93722.00
2024-01-19T00:31:50.685Z,93724.00
2024-01-19T00:32:50.814Z,93724.00
2024-01-19T00:33:50.823Z,93725.00
2024-01-19T00:34:50.955Z,93725.00
2024-01-19T00:35:51.044Z,93727.00
2024-01-19T00:36:51.035Z,93730.00
2024-01-19T00:37:51.151Z,93735.00
2024-01-19T00:38:51.205Z,93735.00
2024-01-19T00:39:51.264Z,93741.00
2024-01-19T00:40:51.312Z,93745.00
2024-01-19T00:41:51.479Z,93746.00
2024-01-19T00:42:51.450Z,93750.00
2024-01-19T00:43:51.522Z,93754.00
2024-01-19T00:44:51.682Z,93756.00
2024-01-19T00:45:51.651Z,93759.00
2024-01-19T00:46:51.718Z,93759.00
2024-01-19T00:47:51.837Z,93764.00
2024-01-19T00:48:51.919Z,93767.00
2024-01-19T00:49:51.906Z,93769.00
2024-01-19T00:50:52.106Z,93767.00
2024-01-19T00:51:52.048Z,93768.00
2024-01-19T00:52:52.112Z,93767.00
2024-01-19T00:53:52.261Z,93767.00
2024-01-19T00:54:52.249Z,93767.00
2024-01-19T00:55:52.327Z,93767.00
2024-01-19T00:56:52.401Z,93767.00
2024-01-19T00:57:52.469Z,93763.00
2024-01-19T00:58:52.528Z,93762.00
2024-01-19T00:59:52.645Z,93765.00
2024-01-19T01:00:52.727Z,93765.00
2024-01-19T01:01:52.721Z,93766.00
2024-01-19T01:02:52.895Z,93770.00
2024-01-19T01:03:52.870Z,93769.00
2024-01-19T01:04:52.938Z,93773.00
2024-01-19T01:05:53.104Z,93775.00
2024-01-19T01:06:53.090Z,93779.00
2024-01-19T01:07:53.158Z,93781.00
2024-01-19T01:08:53.285Z,93784.00
2024-01-19T01:09:53.245Z,93787.00
2024-01-19T01:10:53.316Z,93788.00
2024-01-19T01:11:53.429Z,93786.00
2024-01-19T01:12:53.432Z,93787.00
2024-01-19T01:13:53.499Z,93791.00
2024-01-19T01:14:53.671Z,93797.00
2024-01-19T01:15:53.652Z,93801.00
2024-01-19T01:16:53.687Z,93805.00
2024-01-19T01:17:53.845Z,93806.00
2024-01-19T01:18:53.867Z,93811.00
2024-01-19T01:19:53.882Z,93815.00
2024-01-19T01:20:54.022Z,93819.00
2024-01-19T01:21:54.008Z,93819.00
2024-01-19T01:22:54.067Z,93822.00
2024-01-19T01:23:54.177Z,93822.00
2024-01-19T01:24:54.204Z,93825.00
2024-01-19T01:25:54.288Z,93828.00
2024-01-19T01:26:54.497Z,93829.00
2024-01-19T01:27:54.391Z,93828.00
2024-01-19T01:28:54.480Z,93829.00
2024-01-19T01:29:54.645Z,93829.00
2024-01-19T01:30:54.606Z,93829.00
2024-01-19T01:31:54.667Z,93833.00
2024-01-19T01:32:54.896Z,93832.00
2024-01-19T01:33:54.877Z,93834.00
2024-01-19T01:34:54.883Z,93836.00
2024-01-19T01:35:55.022Z,93838.00
2024-01-19T01:36:55.042Z,93839.00
2024-01-19T01:37:55.067Z,93841.00
2024-01-19T01:38:55.252Z,93841.00
2024-01-19T01:39:55.197Z,93842.00
2024-01-19T01:40:55.291Z,93844.00
2024-01-19T01:41:55.369Z,93848.00
2024-01-19T01:42:55.402Z,93848.00
2024-01-19T01:43:55.462Z,93852.00
2024-01-19T01:44:55.642Z,93857.00
2024-01-19T01:45:55.592Z,93862.00
2024-01-19T01:46:55.665Z,93866.00
2024-01-19T01:47:56.026Z,93869.00
2024-01-19T01:48:55.974Z,93871.00
2024-01-19T01:49:55.939Z,93874.00
2024-01-19T01:50:56.015Z,93878.00
2024-01-19T01:51:56.005Z,93879.00
2024-01-19T01:52:56.068Z,93879.00
2024-01-19T01:53:56.163Z,93881.00
2024-01-19T01:54:56.199Z,93883.00
2024-01-19T01:55:56.274Z,93885.00
2024-01-19T01:56:56.398Z,93884.00
2024-01-19T01:57:56.408Z,93888.00
2024-01-19T01:58:56.497Z,93894.00
2024-01-19T01:59:56.589Z,93898.00
2024-01-19T02:00:56.608Z,93906.00
2024-01-19T02:01:56.662Z,93911.00
2024-01-19T02:02:56.721Z,93912.00
2024-01-19T02:03:56.785Z,93914.00
2024-01-19T02:04:56.870Z,93915.00
2024-01-19T02:06:19.349Z,93915.00
2024-01-19T02:06:57.177Z,93913.00
2024-01-19T02:07:56.989Z,93917.00
2024-01-19T02:08:56.961Z,93916.00
2024-01-19T02:09:56.918Z,93917.00
2024-01-19T02:10:56.969Z,93919.00
2024-01-19T02:11:56.944Z,93917.00
2024-01-19T02:12:56.922Z,93918.00
2024-01-19T02:13:56.945Z,93915.00
2024-01-19T02:14:56.972Z,93918.00
2024-01-19T02:15:56.928Z,93919.00
2024-01-19T02:16:56.974Z,93919.00
2024-01-19T02:17:57.028Z,93923.00
2024-01-19T02:18:57.044Z,93923.00
2024-01-19T02:19:56.928Z,93925.00
2024-01-19T02:20:56.959Z,93926.00
2024-01-19T02:21:57.093Z,93927.00
2024-01-19T02:22:57.017Z,93930.00
2024-01-19T02:23:57.104Z,93933.00
2024-01-19T02:24:57.159Z,93934.00
2024-01-19T02:25:57.206Z,93937.00
2024-01-19T02:26:57.343Z,93937.00
2024-01-19T02:27:57.357Z,93939.00
2024-01-19T02:28:57.406Z,93940.00
2024-01-19T02:29:57.474Z,93943.00
2024-01-19T02:30:57.529Z,93944.00
2024-01-19T02:31:57.601Z,93944.00
2024-01-19T02:32:57.733Z,93945.00
2024-01-19T02:33:57.753Z,93947.00
2024-01-19T02:34:57.813Z,93949.00
2024-01-19T02:35:57.925Z,93950.00
2024-01-19T02:36:57.939Z,93955.00
2024-01-19T02:37:57.985Z,93958.00
2024-01-19T02:38:58.092Z,93959.00
2024-01-19T02:39:58.144Z,93961.00
2024-01-19T02:40:58.191Z,93961.00
2024-01-19T02:41:58.252Z,93963.00
2024-01-19T02:42:58.316Z,93965.00
2024-01-19T02:43:58.388Z,93965.00
2024-01-19T02:44:58.460Z,93965.00
2024-01-19T02:45:58.514Z,93964.00
2024-01-19T02:46:58.585Z,93968.00
2024-01-19T02:47:58.731Z,93969.00
2024-01-19T02:48:58.766Z,93972.00
2024-01-19T02:49:58.786Z,93972.00
2024-01-19T02:50:59.141Z,93976.00
2024-01-19T02:51:58.894Z,93977.00
2024-01-19T02:52:58.988Z,93979.00
2024-01-19T02:53:59.045Z,93981.00
2024-01-19T02:54:59.118Z,93981.00
2024-01-19T02:55:59.702Z,93983.00
2024-01-19T02:56:59.320Z,93983.00
2024-01-19T02:57:59.301Z,93983.00
2024-01-19T02:58:59.378Z,93988.00
2024-01-19T02:59:59.465Z,93990.00
2024-01-19T03:00:59.570Z,93993.00
2024-01-19T03:01:59.582Z,93997.00
2024-01-19T03:02:59.730Z,94002.00
2024-01-19T03:03:59.685Z,94003.00
2024-01-19T03:04:59.827Z,94003.00
2024-01-19T03:05:59.901Z,94005.00
2024-01-19T03:06:59.933Z,94010.00
2024-01-19T03:07:59.967Z,94014.00
2024-01-19T03:09:00.041Z,94016.00
2024-01-19T03:10:00.106Z,94018.00
2024-01-19T03:11:00.195Z,94019.00
2024-01-19T03:12:00.252Z,94020.00
2024-01-19T03:13:00.305Z,94023.00
2024-01-19T03:14:00.359Z,94026.00
2024-01-19T03:15:00.491Z,94029.00
2024-01-19T03:16:00.483Z,94029.00
2024-01-19T03:17:00.526Z,94032.00
2024-01-19T03:18:00.734Z,94031.00
2024-01-19T03:19:00.661Z,94030.00
2024-01-19T03:20:00.742Z,94031.00
2024-01-19T03:21:00.827Z,94030.00
2024-01-19T03:22:00.887Z,94032.00
2024-01-19T03:23:00.936Z,94033.00
2024-01-19T03:24:01.033Z,94034.00
2024-01-19T03:25:01.062Z,94037.00
2024-01-19T03:26:01.201Z,94039.00
2024-01-19T03:27:01.299Z,94041.00
2024-01-19T03:28:01.265Z,94041.00
2024-01-19T03:29:01.328Z,94041.00
2024-01-19T03:30:01.611Z,94043.00
2024-01-19T03:31:01.472Z,94045.00
2024-01-19T03:32:01.530Z,94049.00
2024-01-19T03:33:01.769Z,94050.00
2024-01-19T03:34:01.799Z,94053.00
2024-01-19T03:35:01.748Z,94058.00
2024-01-19T03:37:01.859Z,94060.00
2024-01-19T03:38:01.954Z,94063.00
2024-01-19T03:39:02.037Z,94063.00
2024-01-19T03:40:02.082Z,94064.00
2024-01-19T03:41:02.193Z,94066.00
2024-01-19T03:42:02.287Z,94068.00
2024-01-19T03:43:02.278Z,94069.00
2024-01-19T03:44:02.356Z,94071.00
2024-01-19T03:45:02.500Z,94073.00
2024-01-19T03:46:02.480Z,94076.00
2024-01-19T03:47:02.578Z,94076.00
2024-01-19T03:48:02.755Z,94077.00
2024-01-19T03:49:02.687Z,94079.00
2024-01-19T03:50:02.900Z,94082.00
2024-01-19T03:51:02.855Z,94082.00
2024-01-19T03:52:02.860Z,94083.00
2024-01-19T03:53:02.941Z,94082.00
2024-01-19T03:54:03.057Z,94084.00
2024-01-19T03:55:03.067Z,94085.00
2024-01-19T03:56:03.141Z,94086.00
2024-01-19T03:57:03.219Z,94086.00
2024-01-19T03:58:03.293Z,94090.00
2024-01-19T03:59:03.365Z,94092.00
2024-01-19T04:00:03.442Z,94092.00
2024-01-19T04:01:03.513Z,94094.00
2024-01-19T04:02:03.559Z,94097.00
2024-01-19T04:03:03.778Z,94094.00
2024-01-19T04:04:03.730Z,94094.00
2024-01-19T04:05:03.761Z,94095.00
2024-01-19T04:06:04.029Z,94095.00
2024-01-19T04:07:03.971Z,94098.00
2024-01-19T04:08:03.982Z,94097.00
2024-01-19T04:09:04.059Z,94101.00
2024-01-19T04:10:04.103Z,94102.00
2024-01-19T04:11:04.175Z,94104.00
2024-01-19T04:12:04.255Z,94105.00
2024-01-19T04:13:04.309Z,94107.00
2024-01-19T04:14:04.373Z,94108.00
2024-01-19T04:15:04.513Z,94110.00
2024-01-19T04:16:04.549Z,94109.00
2024-01-19T04:17:04.577Z,94110.00
2024-01-19T04:18:04.785Z,94110.00
2024-01-19T04:19:04.807Z,94111.00
2024-01-19T04:20:04.803Z,94110.00
2024-01-19T04:21:04.932Z,94114.00
2024-01-19T04:22:04.895Z,94117.00
2024-01-19T04:23:04.966Z,94118.00
2024-01-19T04:24:06.033Z,94120.00
2024-01-19T04:25:05.102Z,94121.00
2024-01-19T04:26:05.222Z,94123.00
2024-01-19T04:27:05.265Z,94124.00
2024-01-19T04:28:05.310Z,94127.00
2024-01-19T04:29:05.412Z,94128.00
2024-01-19T04:30:05.460Z,94127.00
2024-01-19T04:31:05.512Z,94129.00
2024-01-19T04:32:05.580Z,94129.00
2024-01-19T04:33:05.854Z,94129.00
2024-01-19T04:34:05.868Z,94130.00
2024-01-19T04:35:05.786Z,94132.00
2024-01-19T04:36:05.928Z,94134.00
2024-01-19T04:37:05.898Z,94135.00
2024-01-19T04:38:05.971Z,94137.00
2024-01-19T04:39:06.016Z,94140.00
2024-01-19T04:40:06.077Z,94144.00
2024-01-19T04:41:06.633Z,94147.00
2024-01-19T04:42:06.176Z,94149.00
2024-01-19T04:43:06.223Z,94150.00
2024-01-19T04:44:06.287Z,94150.00
2024-01-19T04:45:06.396Z,94152.00
2024-01-19T04:46:13.707Z,94151.00
2024-01-19T04:47:13.667Z,94151.00
2024-01-19T04:48:13.799Z,94150.00
2024-01-19T04:49:13.680Z,94148.00
2024-01-19T04:50:13.675Z,94149.00
2024-01-19T04:51:13.677Z,94146.00
2024-01-19T04:52:13.700Z,94150.00
2024-01-19T04:53:13.664Z,94150.00
2024-01-19T04:54:13.683Z,94150.00
2024-01-19T04:55:13.676Z,94152.00
2024-01-19T04:56:13.697Z,94153.00
2024-01-19T04:57:13.671Z,94156.00
2024-01-19T04:58:13.672Z,94155.00
2024-01-19T04:59:13.664Z,94158.00
2024-01-19T05:00:13.680Z,94160.00
2024-01-19T05:01:13.727Z,94159.00
2024-01-19T05:02:14.804Z,94162.00
2024-01-19T05:03:13.701Z,94163.00
2024-01-19T05:04:13.739Z,94163.00
2024-01-19T05:05:13.723Z,94162.00
2024-01-19T05:06:13.749Z,94163.00
2024-01-19T05:07:13.730Z,94165.00
2024-01-19T05:08:13.680Z,94164.00
2024-01-19T05:09:13.689Z,94164.00
2024-01-19T05:10:13.670Z,94164.00
2024-01-19T05:11:13.702Z,94165.00
2024-01-19T05:12:13.680Z,94167.00
2024-01-19T05:13:13.696Z,94165.00
2024-01-19T05:14:13.675Z,94168.00
2024-01-19T05:15:13.688Z,94168.00
2024-01-19T05:16:13.688Z,94167.00
2024-01-19T05:17:13.692Z,94170.00
2024-01-19T05:18:13.749Z,94171.00
2024-01-19T05:19:13.721Z,94170.00
2024-01-19T05:20:13.701Z,94170.00
2024-01-19T05:21:13.712Z,94171.00
2024-01-19T05:22:13.685Z,94173.00
2024-01-19T05:23:13.702Z,94176.00
2024-01-19T05:24:13.687Z,94178.00
2024-01-19T05:25:13.718Z,94179.00
2024-01-19T05:26:13.718Z,94180.00
2024-01-19T05:27:13.699Z,94182.00
2024-01-19T05:28:13.692Z,94184.00
2024-01-19T05:29:13.696Z,94186.00
2024-01-19T05:30:13.687Z,94186.00
2024-01-19T05:31:13.696Z,94183.00
2024-01-19T05:32:13.729Z,94182.00
2024-01-19T05:33:13.806Z,94181.00
2024-01-19T05:34:13.807Z,94181.00
2024-01-19T05:35:13.711Z,94181.00
2024-01-19T05:36:13.700Z,94182.00
2024-01-19T05:37:13.707Z,94182.00
2024-01-19T05:38:13.734Z,94184.00
2024-01-19T05:39:13.691Z,94183.00
2024-01-19T05:40:14.030Z,94183.00
2024-01-19T05:41:13.710Z,94187.00
2024-01-19T05:42:13.707Z,94188.00
2024-01-19T05:43:13.700Z,94190.00
2024-01-19T05:44:13.734Z,94195.00
2024-01-19T05:45:13.741Z,94196.00
2024-01-19T05:46:13.744Z,94199.00
2024-01-19T05:47:13.727Z,94203.00
2024-01-19T05:48:13.761Z,94205.00
2024-01-19T05:49:13.770Z,94208.00
2024-01-19T05:50:13.728Z,94208.00
2024-01-19T05:51:13.716Z,94209.00
2024-01-19T05:52:13.731Z,94210.00
2024-01-19T05:53:13.723Z,94215.00
2024-01-19T05:54:13.719Z,94213.00
2024-01-19T05:55:13.734Z,94217.00
2024-01-19T05:56:13.778Z,94218.00
2024-01-19T05:57:13.723Z,94219.00
2024-01-19T05:58:13.735Z,94221.00
2024-01-19T05:59:13.756Z,94224.00
2024-01-19T06:00:13.825Z,94225.00
2024-01-19T06:01:13.795Z,94227.00
2024-01-19T06:02:13.768Z,94228.00
2024-01-19T06:03:13.835Z,94229.00
2024-01-19T06:04:13.741Z,94232.00
2024-01-19T06:05:13.800Z,94233.00
2024-01-19T06:06:13.802Z,94233.00
2024-01-19T06:07:13.761Z,94235.00
2024-01-19T06:08:13.775Z,94235.00
2024-01-19T06:09:13.739Z,94236.00
2024-01-19T06:10:13.745Z,94239.00
2024-01-19T06:11:13.774Z,94245.00
2024-01-19T06:12:13.741Z,94244.00
2024-01-19T06:13:13.757Z,94248.00
2024-01-19T06:14:13.757Z,94246.00
2024-01-19T06:15:13.756Z,94246.00
2024-01-19T06:16:13.756Z,94250.00
2024-01-19T06:17:13.756Z,94254.00
2024-01-19T06:18:13.835Z,94254.00
2024-01-19T06:19:13.829Z,94257.00
2024-01-19T06:20:13.737Z,94258.00
2024-01-19T06:21:13.770Z,94259.00
2024-01-19T06:22:13.759Z,94264.00
2024-01-19T06:23:13.758Z,94265.00
2024-01-19T06:24:13.783Z,94266.00
2024-01-19T06:25:13.773Z,94268.00
2024-01-19T06:26:13.866Z,94269.00
2024-01-19T06:27:13.766Z,94272.00
2024-01-19T06:28:13.752Z,94274.00
2024-01-19T06:29:13.763Z,94273.00
2024-01-19T06:30:13.787Z,94273.00
2024-01-19T06:31:13.910Z,94273.00
2024-01-19T06:32:13.783Z,94276.00
2024-01-19T06:33:13.908Z,94278.00
2024-01-19T06:34:13.780Z,94282.00
2024-01-19T06:35:13.800Z,94280.00
2024-01-19T06:36:13.958Z,94284.00
2024-01-19T06:37:13.769Z,94286.00
2024-01-19T06:38:13.910Z,94289.00
2024-01-19T06:39:13.802Z,94289.00
2024-01-19T06:40:13.869Z,94292.00
2024-01-19T06:41:13.767Z,94298.00
2024-01-19T06:42:13.812Z,94301.00
2024-01-19T06:43:13.760Z,94304.00
2024-01-19T06:44:13.786Z,94305.00
2024-01-19T06:45:13.848Z,94312.00
2024-01-19T06:46:14.441Z,94316.00
2024-01-19T06:47:13.778Z,94318.00
2024-01-19T06:48:13.930Z,94323.00
2024-01-19T06:49:14.017Z,94325.00
2024-01-19T06:50:13.949Z,94325.00
2024-01-19T06:51:14.087Z,94326.00
2024-01-19T06:52:14.100Z,94327.00
2024-01-19T06:53:14.052Z,94329.00
2024-01-19T06:54:14.127Z,94330.00
2024-01-19T06:55:14.156Z,94331.00
2024-01-19T06:56:14.347Z,94328.00
2024-01-19T06:57:14.402Z,94329.00
2024-01-19T06:58:14.346Z,94329.00
2024-01-19T06:59:14.478Z,94331.00
2024-01-19T07:00:14.592Z,94331.00
2024-01-19T07:01:14.610Z,94331.00
2024-01-19T07:02:14.620Z,94333.00
2024-01-19T07:03:14.730Z,94334.00
2024-01-19T07:04:14.842Z,94337.00
2024-01-19T07:05:14.846Z,94337.00
2024-01-19T07:06:15.036Z,94344.00
2024-01-19T07:07:15.011Z,94346.00
2024-01-19T07:08:14.997Z,94348.00
2024-01-19T07:09:15.069Z,94348.00
2024-01-19T07:10:15.070Z,94353.00
2024-01-19T07:11:15.168Z,94350.00
2024-01-19T07:12:15.140Z,94353.00
2024-01-19T07:13:15.138Z,94354.00
2024-01-19T07:14:15.166Z,94356.00
2024-01-19T07:15:15.304Z,94358.00
2024-01-19T07:16:15.202Z,94359.00
2024-01-19T07:17:16.721Z,94364.00
2024-01-19T07:18:15.281Z,94364.00
2024-01-19T07:19:15.247Z,94366.00
2024-01-19T07:20:15.237Z,94371.00
2024-01-19T07:21:15.417Z,94374.00
2024-01-19T07:22:15.229Z,94374.00
2024-01-19T07:23:15.227Z,94379.00
2024-01-19T07:24:15.316Z,94380.00
2024-01-19T07:25:15.256Z,94384.00
2024-01-19T07:26:15.257Z,94388.00
2024-01-19T07:27:15.868Z,94392.00
2024-01-19T07:28:15.267Z,94395.00
2024-01-19T07:29:15.341Z,94398.00
2024-01-19T07:30:15.296Z,94400.00
2024-01-19T07:31:15.334Z,94402.00
2024-01-19T07:32:15.295Z,94406.00
2024-01-19T07:33:19.904Z,94412.00
2024-01-19T07:34:16.464Z,94415.00
2024-01-19T07:35:15.526Z,94420.00
2024-01-19T07:36:15.402Z,94425.00
2024-01-19T07:37:15.328Z,94425.00
2024-01-19T07:38:15.292Z,94425.00
2024-01-19T07:39:15.388Z,94424.00
2024-01-19T07:40:15.387Z,94423.00
2024-01-19T07:41:15.299Z,94423.00
2024-01-19T07:42:15.366Z,94426.00
2024-01-19T07:43:15.376Z,94428.00
2024-01-19T07:44:15.362Z,94427.00
2024-01-19T07:45:15.311Z,94426.00
2024-01-19T07:46:15.305Z,94427.00
2024-01-19T07:47:15.365Z,94430.00
2024-01-19T07:48:15.496Z,94427.00
2024-01-19T07:49:15.461Z,94426.00
2024-01-19T07:50:15.527Z,94427.00
2024-01-19T07:51:15.578Z,94426.00
2024-01-19T07:52:15.614Z,94425.00
2024-01-19T07:53:15.606Z,94430.00
2024-01-19T07:54:15.649Z,94432.00
2024-01-19T07:55:15.669Z,94436.00
2024-01-19T07:56:15.687Z,94439.00
2024-01-19T07:57:15.740Z,94440.00
2024-01-19T07:58:15.722Z,94442.00
2024-01-19T07:59:15.825Z,94443.00
2024-01-19T08:00:15.887Z,94445.00
2024-01-19T08:01:15.883Z,94445.00
2024-01-19T08:02:15.869Z,94447.00
2024-01-19T08:03:15.859Z,94450.00
2024-01-19T08:04:15.822Z,94450.00
2024-01-19T08:05:16.110Z,94452.00
2024-01-19T08:06:16.035Z,94457.00
2024-01-19T08:07:16.029Z,94460.00
2024-01-19T08:08:16.128Z,94463.00
2024-01-19T08:09:16.206Z,94464.00
2024-01-19T08:10:16.276Z,94466.00
2024-01-19T08:11:16.344Z,94470.00
2024-01-19T08:12:17.205Z,94472.00
2024-01-19T08:13:16.422Z,94472.00
2024-01-19T08:14:16.476Z,94471.00
2024-01-19T08:15:16.532Z,94475.00
2024-01-19T08:16:16.912Z,94476.00
2024-01-19T08:17:16.643Z,94475.00
2024-01-19T08:18:16.859Z,94479.00
2024-01-19T08:19:16.793Z,94477.00
2024-01-19T08:20:16.792Z,94480.00
2024-01-19T08:21:16.858Z,94483.00
2024-01-19T08:22:16.878Z,94483.00
2024-01-19T08:23:17.029Z,94489.00
2024-01-19T08:24:16.915Z,94490.00
2024-01-19T08:25:16.951Z,94490.00
2024-01-19T08:26:17.019Z,94492.00
2024-01-19T08:27:16.977Z,94496.00
2024-01-19T08:28:17.075Z,94496.00
2024-01-19T08:29:17.073Z,94499.00
2024-01-19T08:30:17.066Z,94500.00
2024-01-19T08:31:17.879Z,94503.00
2024-01-19T08:32:17.100Z,94507.00
2024-01-19T08:33:17.393Z,94506.00
2024-01-19T08:34:17.268Z,94510.00
2024-01-19T08:35:17.170Z,94513.00
2024-01-19T08:36:17.201Z,94516.00
2024-01-19T08:37:17.253Z,94516.00
2024-01-19T08:38:17.298Z,94519.00
2024-01-19T08:39:17.338Z,94521.00
2024-01-19T08:40:17.358Z,94524.00
2024-01-19T08:41:17.445Z,94524.00
2024-01-19T08:42:17.361Z,94524.00
2024-01-19T08:43:17.382Z,94528.00
2024-01-19T08:44:17.379Z,94526.00
2024-01-19T08:45:17.451Z,94526.00
2024-01-19T08:46:17.447Z,94531.00
2024-01-19T08:47:17.416Z,94530.00
2024-01-19T08:48:17.729Z,94532.00
2024-01-19T08:49:17.484Z,94536.00
2024-01-19T08:50:17.433Z,94537.00
2024-01-19T08:51:17.893Z,94541.00
2024-01-19T08:52:17.878Z,94542.00
2024-01-19T08:53:17.449Z,94548.00
2024-01-19T08:54:17.468Z,94550.00
2024-01-19T08:55:17.491Z,94552.00
2024-01-19T08:56:17.932Z,94550.00
2024-01-19T08:57:17.574Z,94551.00
2024-01-19T08:58:17.545Z,94553.00
2024-01-19T08:59:17.743Z,94554.00
2024-01-19T09:00:17.707Z,94556.00
2024-01-19T09:01:17.913Z,94559.00
2024-01-19T09:02:17.914Z,94560.00
2024-01-19T09:03:17.846Z,94564.00
2024-01-19T09:04:17.791Z,94567.00
2024-01-19T09:05:17.741Z,94568.00
2024-01-19T09:06:18.221Z,94570.00
2024-01-19T09:07:18.391Z,94573.00
2024-01-19T09:08:17.744Z,94575.00
2024-01-19T09:09:17.741Z,94576.00
2024-01-19T09:10:17.758Z,94579.00
2024-01-19T09:11:17.892Z,94578.00
2024-01-19T09:12:17.848Z,94582.00
2024-01-19T09:13:17.864Z,94583.00
2024-01-19T09:14:17.890Z,94587.00
2024-01-19T09:15:17.893Z,94585.00
2024-01-19T09:16:17.908Z,94586.00
2024-01-19T09:17:17.898Z,94590.00
2024-01-19T09:18:18.011Z,94591.00
2024-01-19T09:19:18.036Z,94593.00
2024-01-19T09:20:18.090Z,94593.00
2024-01-19T09:21:18.142Z,94598.00
2024-01-19T09:22:18.219Z,94599.00
2024-01-19T09:23:18.259Z,94603.00
2024-01-19T09:24:18.332Z,94605.00
2024-01-19T09:25:18.395Z,94605.00
2024-01-19T09:26:18.468Z,94606.00
2024-01-19T09:27:18.544Z,94608.00
2024-01-19T09:28:18.622Z,94610.00
2024-01-19T09:29:18.581Z,94613.00
2024-01-19T09:30:18.586Z,94614.00
2024-01-19T09:31:18.631Z,94616.00
2024-01-19T09:32:18.925Z,94620.00
2024-01-19T09:33:18.664Z,94623.00
2024-01-19T09:34:18.665Z,94630.00
2024-01-19T09:35:18.632Z,94634.00
2024-01-19T09:36:18.666Z,94637.00
2024-01-19T09:37:18.655Z,94641.00
2024-01-19T09:38:18.692Z,94642.00
2024-01-19T09:39:18.708Z,94644.00
2024-01-19T09:40:18.924Z,94649.00
2024-01-19T09:41:18.792Z,94653.00
2024-01-19T09:42:18.819Z,94654.00
2024-01-19T09:43:18.872Z,94659.00
2024-01-19T09:44:18.918Z,94661.00
2024-01-19T09:45:19.576Z,94668.00
2024-01-19T09:46:19.014Z,94670.00
2024-01-19T09:47:19.034Z,94669.00
2024-01-19T09:48:19.175Z,94672.00
2024-01-19T09:49:19.123Z,94673.00
2024-01-19T09:50:19.127Z,94679.00
2024-01-19T09:51:19.135Z,94681.00
2024-01-19T09:52:19.419Z,94683.00
2024-01-19T09:53:19.170Z,94684.00
2024-01-19T09:54:19.185Z,94684.00
2024-01-19T09:55:19.411Z,94687.00
2024-01-19T09:56:19.256Z,94688.00
2024-01-19T09:57:19.220Z,94688.00
2024-01-19T09:58:19.221Z,94688.00
2024-01-19T09:59:19.228Z,94688.00
2024-01-19T10:00:19.287Z,94689.00
2024-01-19T10:01:19.304Z,94691.00
2024-01-19T10:02:19.430Z,94693.00
2024-01-19T10:03:19.340Z,94698.00
2024-01-19T10:04:19.281Z,94698.00
2024-01-19T10:05:19.339Z,94700.00
2024-01-19T10:06:19.346Z,94702.00
2024-01-19T10:07:19.431Z,94706.00
2024-01-19T10:08:19.279Z,94705.00
2024-01-19T10:09:19.312Z,94706.00
2024-01-19T10:10:19.355Z,94704.00
2024-01-19T10:11:19.328Z,94707.00
2024-01-19T10:12:19.364Z,94709.00
2024-01-19T10:13:19.404Z,94708.00
2024-01-19T10:14:19.430Z,94708.00
2024-01-19T10:15:19.492Z,94709.00
2024-01-19T10:16:19.512Z,94710.00
2024-01-19T10:17:19.928Z,94710.00
2024-01-19T10:18:19.750Z,94710.00
2024-01-19T10:19:19.705Z,94710.00
2024-01-19T10:20:19.800Z,94711.00
2024-01-19T10:21:19.820Z,94712.00
2024-01-19T10:22:19.921Z,94711.00
2024-01-19T10:23:19.942Z,94712.00
2024-01-19T10:24:19.996Z,94713.00
2024-01-19T10:25:20.124Z,94716.00
2024-01-19T10:26:20.102Z,94719.00
2024-01-19T10:27:20.163Z,94720.00
2024-01-19T10:28:20.257Z,94720.00
2024-01-19T10:29:20.290Z,94724.00
2024-01-19T10:30:20.372Z,94723.00
2024-01-19T10:31:20.400Z,94725.00
2024-01-19T10:32:20.453Z,94725.00
2024-01-19T10:33:20.577Z,94724.00
2024-01-19T10:34:20.679Z,94723.00
2024-01-19T10:35:20.612Z,94722.00
2024-01-19T10:36:20.716Z,94722.00
2024-01-19T10:37:20.971Z,94724.00
2024-01-19T10:38:20.826Z,94722.00
2024-01-19T10:39:20.912Z,94723.00
2024-01-19T10:40:20.952Z,94721.00
2024-01-19T10:41:21.013Z,94719.00
2024-01-19T10:42:21.424Z,94719.00
2024-01-19T10:43:21.054Z,94717.00
2024-01-19T10:44:21.069Z,94718.00
2024-01-19T10:45:21.051Z,94718.00
2024-01-19T10:46:21.121Z,94722.00
2024-01-19T10:47:21.102Z,94720.00
2024-01-19T10:48:21.210Z,94722.00
2024-01-19T10:49:21.270Z,94725.00
2024-01-19T10:50:21.198Z,94724.00
2024-01-19T10:51:21.251Z,94727.00
2024-01-19T10:52:21.301Z,94727.00
2024-01-19T10:53:21.306Z,94725.00
2024-01-19T10:54:21.337Z,94721.00
2024-01-19T10:55:21.396Z,94720.00
2024-01-19T10:56:21.481Z,94720.00
2024-01-19T10:57:21.487Z,94719.00
2024-01-19T10:58:21.522Z,94720.00
2024-01-19T10:59:21.578Z,94722.00
2024-01-19T11:00:21.626Z,94723.00
2024-01-19T11:01:21.732Z,94724.00
2024-01-19T11:02:21.739Z,94724.00
2024-01-19T11:03:21.790Z,94724.00
2024-01-19T11:04:21.827Z,94725.00
2024-01-19T11:05:21.879Z,94728.00
2024-01-19T11:06:22.061Z,94729.00
2024-01-19T11:07:22.143Z,94729.00
2024-01-19T11:08:22.055Z,94731.00
2024-01-19T11:09:22.084Z,94732.00
2024-01-19T11:10:22.147Z,94735.00
2024-01-19T11:11:22.216Z,94736.00
2024-01-19T11:12:22.281Z,94740.00
2024-01-19T11:13:22.357Z,94742.00
2024-01-19T11:14:22.374Z,94744.00
2024-01-19T11:15:22.447Z,94745.00
2024-01-19T11:16:22.500Z,94746.00
2024-01-19T11:17:22.608Z,94749.00
2024-01-19T11:18:22.781Z,94748.00
2024-01-19T11:19:22.794Z,94750.00
2024-01-19T11:20:22.748Z,94751.00
2024-01-19T11:21:22.870Z,94750.00
2024-01-19T11:22:22.903Z,94754.00
2024-01-19T11:23:22.973Z,94757.00
2024-01-19T11:24:23.039Z,94758.00
2024-01-19T11:25:23.081Z,94758.00
2024-01-19T11:26:23.126Z,94757.00
2024-01-19T11:27:23.185Z,94760.00
2024-01-19T11:28:23.243Z,94761.00
2024-01-19T11:29:23.290Z,94763.00
2024-01-19T11:30:23.412Z,94765.00
2024-01-19T11:31:23.418Z,94764.00
2024-01-19T11:32:23.588Z,94765.00
2024-01-19T11:33:23.659Z,94766.00
2024-01-19T11:34:24.504Z,94766.00
2024-01-19T11:35:23.691Z,94768.00
2024-01-19T11:36:23.731Z,94767.00
2024-01-19T11:37:23.970Z,94769.00
2024-01-19T11:38:23.857Z,94769.00
2024-01-19T11:39:23.919Z,94773.00
2024-01-19T11:40:24.065Z,94772.00
2024-01-19T11:41:24.070Z,94775.00
2024-01-19T11:42:24.482Z,94771.00
2024-01-19T11:43:24.182Z,94772.00
2024-01-19T11:44:24.220Z,94769.00
2024-01-19T11:45:24.290Z,94773.00
2024-01-19T11:46:24.365Z,94774.00